Time,TemperatureF,DewpointF,PressureIn,WindDirection,WindDirectionDegrees,WindSpeedMPH,WindSpeedGustMPH,Humidity,HourlyPrecipIn,Conditions,Clouds,dailyrainin,SolarRadiationWatts/m^2,SoftwareType,DateUTC
2013-01-04 00:00:00,2.3,-5.3,30.75,East,90,2.0,3.0,70,0.00,,,-99.99,0,WeatherLink 5.7,2013-01-04 07:00:00,
2013-01-04 00:10:00,2.1,-5.4,30.76,East,90,3.0,4.0,70,0.00,,,-99.99,0,WeatherLink 5.7,2013-01-04 07:10:00,
2013-01-04 00:15:00,1.9,-5.3,30.76,East,90,4.0,5.0,71,0.00,,,-99.99,0,WeatherLink 5.7,2013-01-04 07:15:00,
2013-01-04 00:20:00,1.9,-5.3,30.73,East,90,3.0,5.0,71,0.00,,,-99.99,0,WeatherLink 5.7,2013-01-04 07:20:00,
2013-01-04 00:25:00,1.7,-5.5,30.73,ESE,112,2.0,4.0,71,0.00,,,-99.99,0,WeatherLink 5.7,2013-01-04 07:25:00,
2013-01-04 00:35:00,1.4,-5.8,30.73,East,90,2.0,3.0,71,0.00,,,-99.99,0,WeatherLink 5.7,2013-01-04 07:35:00,
2013-01-04 00:45:00,1.5,-5.4,30.73,East,90,3.0,5.0,72,0.00,,,-99.99,0,WeatherLink 5.7,2013-01-04 07:45:00,
2013-01-04 00:50:00,1.4,-5.8,30.72,East,90,2.0,5.0,71,0.00,,,-99.99,0,WeatherLink 5.7,2013-01-04 07:50:00,
2013-01-04 01:00:00,1.2,-6.0,30.72,East,90,3.0,5.0,71,0.00,,,-99.99,0,WeatherLink 5.7,2013-01-04 08:00:00,
2013-01-04 01:10:00,1.0,-6.2,30.72,East,90,3.0,5.0,71,0.00,,,-99.99,0,WeatherLink 5.7,2013-01-04 08:10:00,
2013-01-04 01:15:00,1.0,-5.9,30.72,East,90,2.0,4.0,72,0.00,,,-99.99,0,WeatherLink 5.7,2013-01-04 08:15:00,
2013-01-04 01:20:00,0.6,-6.3,30.69,East,90,2.0,3.0,72,0.00,,,-99.99,0,WeatherLink 5.7,2013-01-04 08:20:00,
2013-01-04 01:30:00,0.2,-6.7,30.69,East,90,2.0,4.0,72,0.00,,,-99.99,0,WeatherLink 5.7,2013-01-04 08:30:00,
2013-01-04 01:35:00,0.2,-6.7,30.70,East,90,3.0,5.0,72,0.00,,,-99.99,0,WeatherLink 5.7,2013-01-04 08:35:00,
2013-01-04 01:45:00,0.0,-6.9,30.70,ESE,112,1.0,3.0,72,0.00,,,-99.99,0,WeatherLink 5.7,2013-01-04 08:45:00,
2013-01-04 01:50:00,-0.2,-6.8,30.70,East,90,2.0,3.0,73,0.00,,,-99.99,0,WeatherLink 5.7,2013-01-04 08:50:00,
2013-01-04 02:00:00,-0.2,-6.8,30.70,East,90,2.0,4.0,73,0.00,,,-99.99,0,WeatherLink 5.7,2013-01-04 09:00:00,
2013-01-04 02:10:00,-0.2,-6.8,30.71,East,90,2.0,3.0,73,0.00,,,-99.99,0,WeatherLink 5.7,2013-01-04 09:10:00,
2013-01-04 02:15:00,-0.2,-6.8,30.71,East,90,2.0,4.0,73,0.00,,,-99.99,0,WeatherLink 5.7,2013-01-04 09:15:00,
2013-01-04 02:25:00,-0.2,-6.8,30.69,East,90,2.0,3.0,73,0.00,,,-99.99,0,WeatherLink 5.7,2013-01-04 09:25:00,
2013-01-04 02:30:00,-0.3,-6.9,30.69,East,90,2.0,3.0,73,0.00,,,-99.99,0,WeatherLink 5.7,2013-01-04 09:30:00,
2013-01-04 02:35:00,-0.3,-6.9,30.69,SE,135,1.0,4.0,73,0.00,,,-99.99,0,WeatherLink 5.7,2013-01-04 09:35:00,
2013-01-04 02:45:00,-0.7,-7.3,30.69,East,90,3.0,4.0,73,0.00,,,-99.99,0,WeatherLink 5.7,2013-01-04 09:45:00,
2013-01-04 02:50:00,-0.7,-7.3,30.69,East,90,2.0,4.0,73,0.00,,,-99.99,0,WeatherLink 5.7,2013-01-04 09:50:00,
2013-01-04 03:00:00,-0.7,-7.3,30.69,East,90,3.0,5.0,73,0.00,,,-99.99,0,WeatherLink 5.7,2013-01-04 10:00:00,
2013-01-04 03:10:00,-0.7,-7.3,30.69,East,90,3.0,7.0,73,0.00,,,-99.99,0,WeatherLink 5.7,2013-01-04 10:10:00,
2013-01-04 03:15:00,-0.7,-7.3,30.69,East,90,3.0,5.0,73,0.00,,,-99.99,0,WeatherLink 5.7,2013-01-04 10:15:00,
2013-01-04 03:20:00,-0.7,-7.3,30.72,East,90,3.0,5.0,73,0.00,,,-99.99,0,WeatherLink 5.7,2013-01-04 10:20:00,
2013-01-04 03:30:00,-0.9,-7.5,30.72,East,90,3.0,5.0,73,0.00,,,-99.99,0,WeatherLink 5.7,2013-01-04 10:30:00,
2013-01-04 03:40:00,-0.9,-7.5,30.72,East,90,2.0,4.0,73,0.00,,,-99.99,0,WeatherLink 5.7,2013-01-04 10:40:00,
2013-01-04 03:45:00,-1.3,-8.1,30.72,ESE,112,2.0,3.0,72,0.00,,,-99.99,0,WeatherLink 5.7,2013-01-04 10:45:00,
2013-01-04 03:50:00,-1.5,-8.1,30.73,East,90,2.0,4.0,73,0.00,,,-99.99,0,WeatherLink 5.7,2013-01-04 10:50:00,
2013-01-04 04:00:00,-1.7,-8.3,30.73,ESE,112,2.0,4.0,73,0.00,,,-99.99,0,WeatherLink 5.7,2013-01-04 11:00:00,
2013-01-04 04:10:00,-1.7,-8.3,30.73,ESE,112,3.0,5.0,73,0.00,,,-99.99,0,WeatherLink 5.7,2013-01-04 11:10:00,
2013-01-04 04:20:00,-1.5,-8.1,30.74,ESE,112,2.0,5.0,73,0.00,,,-99.99,0,WeatherLink 5.7,2013-01-04 11:20:00,
2013-01-04 04:25:00,-1.5,-8.1,30.74,East,90,4.0,7.0,73,0.00,,,-99.99,0,WeatherLink 5.7,2013-01-04 11:25:00,
2013-01-04 04:30:00,-1.3,-7.9,30.74,East,90,3.0,7.0,73,0.00,,,-99.99,0,WeatherLink 5.7,2013-01-04 11:30:00,
2013-01-04 04:40:00,-1.7,-8.3,30.74,East,90,3.0,5.0,73,0.00,,,-99.99,0,WeatherLink 5.7,2013-01-04 11:40:00,
2013-01-04 04:45:00,-1.7,-8.3,30.74,East,90,1.0,4.0,73,0.00,,,-99.99,0,WeatherLink 5.7,2013-01-04 11:45:00,
2013-01-04 04:50:00,-1.7,-8.3,30.74,East,90,2.0,4.0,73,0.00,,,-99.99,0,WeatherLink 5.7,2013-01-04 11:50:00,
2013-01-04 05:00:00,-1.7,-8.3,30.74,East,90,2.0,5.0,73,0.00,,,-99.99,0,WeatherLink 5.7,2013-01-04 12:00:00,
2013-01-04 05:10:00,-1.7,-8.3,30.74,East,90,2.0,4.0,73,0.00,,,-99.99,0,WeatherLink 5.7,2013-01-04 12:10:00,
2013-01-04 05:20:00,-2.1,-8.6,30.76,East,90,2.0,5.0,73,0.00,,,-99.99,0,WeatherLink 5.7,2013-01-04 12:20:00,
2013-01-04 05:25:00,-2.3,-8.8,30.76,East,90,1.0,5.0,73,0.00,,,-99.99,0,WeatherLink 5.7,2013-01-04 12:25:00,
2013-01-04 05:35:00,-2.7,-9.2,30.77,East,90,2.0,3.0,73,0.00,,,-99.99,0,WeatherLink 5.7,2013-01-04 12:35:00,
2013-01-04 05:45:00,-2.7,-9.2,30.77,East,90,2.0,3.0,73,0.00,,,-99.99,0,WeatherLink 5.7,2013-01-04 12:45:00,
2013-01-04 05:55:00,-2.5,-9.0,30.77,East,90,3.0,5.0,73,0.00,,,-99.99,0,WeatherLink 5.7,2013-01-04 12:55:00,
2013-01-04 06:00:00,-2.5,-9.0,30.77,East,90,3.0,5.0,73,0.00,,,-99.99,0,WeatherLink 5.7,2013-01-04 13:00:00,
2013-01-04 06:10:00,-2.5,-9.0,30.78,East,90,3.0,5.0,73,0.00,,,-99.99,0,WeatherLink 5.7,2013-01-04 13:10:00,
2013-01-04 06:15:00,-2.3,-8.8,30.78,East,90,2.0,4.0,73,0.00,,,-99.99,0,WeatherLink 5.7,2013-01-04 13:15:00,
2013-01-04 06:20:00,-2.3,-8.8,30.79,East,90,3.0,5.0,73,0.00,,,-99.99,0,WeatherLink 5.7,2013-01-04 13:20:00,
2013-01-04 06:30:00,-2.7,-9.2,30.79,East,90,2.0,4.0,73,0.00,,,-99.99,0,WeatherLink 5.7,2013-01-04 13:30:00,
2013-01-04 06:35:00,-2.7,-9.2,30.79,East,90,2.0,5.0,73,0.00,,,-99.99,0,WeatherLink 5.7,2013-01-04 13:35:00,
2013-01-04 06:40:00,-2.9,-9.4,30.79,East,90,2.0,4.0,73,0.00,,,-99.99,0,WeatherLink 5.7,2013-01-04 13:40:00,
2013-01-04 06:45:00,-3.1,-9.6,30.79,ESE,112,2.0,4.0,73,0.00,,,-99.99,0,WeatherLink 5.7,2013-01-04 13:45:00,